sensor_id;sensor_type;location;lat;lon;timestamp;temperature;humidity
10512;DHT22;5304;48.604;2.096;2023-04-24T00:00:07;7.80;99.90
10512;DHT22;5304;48.604;2.096;2023-04-24T00:02:54;7.70;99.90
10512;DHT22;5304;48.604;2.096;2023-04-24T00:05:41;7.70;99.90
10512;DHT22;5304;48.604;2.096;2023-04-24T00:08:26;7.70;99.90
10512;DHT22;5304;48.604;2.096;2023-04-24T00:11:11;7.70;99.90
10512;DHT22;5304;48.604;2.096;2023-04-24T00:13:56;7.70;99.90
10512;DHT22;5304;48.604;2.096;2023-04-24T00:16:41;7.70;99.90
10512;DHT22;5304;48.604;2.096;2023-04-24T00:19:25;7.70;99.90
10512;DHT22;5304;48.604;2.096;2023-04-24T00:22:09;7.60;99.90
10512;DHT22;5304;48.604;2.096;2023-04-24T00:24:55;7.50;99.90
10512;DHT22;5304;48.604;2.096;2023-04-24T00:27:39;7.50;99.90
10512;DHT22;5304;48.604;2.096;2023-04-24T00:30:24;7.50;99.90
10512;DHT22;5304;48.604;2.096;2023-04-24T00:33:08;7.50;99.90
10512;DHT22;5304;48.604;2.096;2023-04-24T00:35:53;7.50;99.90
10512;DHT22;5304;48.604;2.096;2023-04-24T00:38:37;7.50;99.90
10512;DHT22;5304;48.604;2.096;2023-04-24T00:41:22;7.50;99.90
10512;DHT22;5304;48.604;2.096;2023-04-24T00:44:06;7.50;99.90
10512;DHT22;5304;48.604;2.096;2023-04-24T00:46:51;7.50;99.90
10512;DHT22;5304;48.604;2.096;2023-04-24T00:49:38;7.50;99.90
10512;DHT22;5304;48.604;2.096;2023-04-24T00:52:23;7.40;99.90
10512;DHT22;5304;48.604;2.096;2023-04-24T00:55:08;7.40;99.90
10512;DHT22;5304;48.604;2.096;2023-04-24T00:57:53;7.40;99.90
10512;DHT22;5304;48.604;2.096;2023-04-24T01:00:38;7.40;99.90
10512;DHT22;5304;48.604;2.096;2023-04-24T01:03:26;7.40;99.90
10512;DHT22;5304;48.604;2.096;2023-04-24T01:06:13;7.40;99.90
10512;DHT22;5304;48.604;2.096;2023-04-24T01:08:58;7.30;99.90
10512;DHT22;5304;48.604;2.096;2023-04-24T01:11:44;7.30;99.90
10512;DHT22;5304;48.604;2.096;2023-04-24T01:14:29;7.30;99.90
10512;DHT22;5304;48.604;2.096;2023-04-24T01:17:14;7.30;99.90
10512;DHT22;5304;48.604;2.096;2023-04-24T01:20:00;7.20;99.90
10512;DHT22;5304;48.604;2.096;2023-04-24T01:22:44;7.20;99.90
10512;DHT22;5304;48.604;2.096;2023-04-24T01:25:29;7.20;99.90
10512;DHT22;5304;48.604;2.096;2023-04-24T01:28:17;7.10;99.90
10512;DHT22;5304;48.604;2.096;2023-04-24T01:31:01;7.10;99.90
10512;DHT22;5304;48.604;2.096;2023-04-24T01:33:45;7.10;99.90
10512;DHT22;5304;48.604;2.096;2023-04-24T01:36:30;7.10;99.90
10512;DHT22;5304;48.604;2.096;2023-04-24T01:39:16;7.10;99.90
10512;DHT22;5304;48.604;2.096;2023-04-24T01:42:00;7.10;99.90
10512;DHT22;5304;48.604;2.096;2023-04-24T01:44:46;7.10;99.90
10512;DHT22;5304;48.604;2.096;2023-04-24T01:47:32;7.10;99.90
10512;DHT22;5304;48.604;2.096;2023-04-24T01:50:18;7.10;99.90
10512;DHT22;5304;48.604;2.096;2023-04-24T01:53:02;7.10;99.90
10512;DHT22;5304;48.604;2.096;2023-04-24T01:55:47;7.10;99.90
10512;DHT22;5304;48.604;2.096;2023-04-24T01:58:31;7.10;99.90
10512;DHT22;5304;48.604;2.096;2023-04-24T02:01:19;7.10;99.90
10512;DHT22;5304;48.604;2.096;2023-04-24T02:04:05;7.10;99.90
10512;DHT22;5304;48.604;2.096;2023-04-24T02:06:50;7.10;99.90
10512;DHT22;5304;48.604;2.096;2023-04-24T02:09:34;7.20;99.90
10512;DHT22;5304;48.604;2.096;2023-04-24T02:12:18;7.20;99.90
10512;DHT22;5304;48.604;2.096;2023-04-24T02:15:03;7.20;99.90
10512;DHT22;5304;48.604;2.096;2023-04-24T02:17:48;7.20;99.90
10512;DHT22;5304;48.604;2.096;2023-04-24T02:20:33;7.10;99.90
10512;DHT22;5304;48.604;2.096;2023-04-24T02:23:19;7.10;99.90
10512;DHT22;5304;48.604;2.096;2023-04-24T02:26:04;7.10;99.90
10512;DHT22;5304;48.604;2.096;2023-04-24T02:28:48;7.10;99.90
10512;DHT22;5304;48.604;2.096;2023-04-24T02:31:32;7.20;99.90
10512;DHT22;5304;48.604;2.096;2023-04-24T02:34:17;7.10;99.90
10512;DHT22;5304;48.604;2.096;2023-04-24T02:37:01;7.00;99.90
10512;DHT22;5304;48.604;2.096;2023-04-24T02:39:45;7.00;99.90
10512;DHT22;5304;48.604;2.096;2023-04-24T02:42:30;6.90;99.90
10512;DHT22;5304;48.604;2.096;2023-04-24T02:45:14;6.90;99.90
10512;DHT22;5304;48.604;2.096;2023-04-24T02:47:59;6.80;99.90
10512;DHT22;5304;48.604;2.096;2023-04-24T02:50:44;6.80;99.90
10512;DHT22;5304;48.604;2.096;2023-04-24T02:53:29;6.70;99.90
10512;DHT22;5304;48.604;2.096;2023-04-24T02:56:15;6.70;99.90
10512;DHT22;5304;48.604;2.096;2023-04-24T02:58:59;6.70;99.90
10512;DHT22;5304;48.604;2.096;2023-04-24T03:01:44;6.60;99.90
10512;DHT22;5304;48.604;2.096;2023-04-24T03:04:29;6.70;99.90
10512;DHT22;5304;48.604;2.096;2023-04-24T03:07:13;6.60;99.90
10512;DHT22;5304;48.604;2.096;2023-04-24T03:09:58;6.60;99.90
10512;DHT22;5304;48.604;2.096;2023-04-24T03:12:43;6.60;99.90
10512;DHT22;5304;48.604;2.096;2023-04-24T03:15:27;6.60;99.90
10512;DHT22;5304;48.604;2.096;2023-04-24T03:18:12;6.60;99.90
10512;DHT22;5304;48.604;2.096;2023-04-24T03:20:56;6.50;99.90
10512;DHT22;5304;48.604;2.096;2023-04-24T03:23:41;6.50;99.90
10512;DHT22;5304;48.604;2.096;2023-04-24T03:26:25;6.50;99.90
10512;DHT22;5304;48.604;2.096;2023-04-24T03:29:09;6.50;99.90
10512;DHT22;5304;48.604;2.096;2023-04-24T03:31:54;6.40;99.90
10512;DHT22;5304;48.604;2.096;2023-04-24T03:34:38;6.50;99.90
10512;DHT22;5304;48.604;2.096;2023-04-24T03:37:23;6.40;99.90
10512;DHT22;5304;48.604;2.096;2023-04-24T03:40:07;6.40;99.90
10512;DHT22;5304;48.604;2.096;2023-04-24T03:42:52;6.30;99.90
10512;DHT22;5304;48.604;2.096;2023-04-24T03:45:36;6.40;99.90
10512;DHT22;5304;48.604;2.096;2023-04-24T03:48:21;6.40;99.90
10512;DHT22;5304;48.604;2.096;2023-04-24T03:51:05;6.30;99.90
10512;DHT22;5304;48.604;2.096;2023-04-24T03:53:49;6.30;99.90
10512;DHT22;5304;48.604;2.096;2023-04-24T03:56:34;6.30;99.90
10512;DHT22;5304;48.604;2.096;2023-04-24T03:59:19;6.20;99.90
10512;DHT22;5304;48.604;2.096;2023-04-24T04:02:03;6.30;99.90
10512;DHT22;5304;48.604;2.096;2023-04-24T04:04:47;6.20;99.90
10512;DHT22;5304;48.604;2.096;2023-04-24T04:07:32;6.30;99.90
10512;DHT22;5304;48.604;2.096;2023-04-24T04:10:17;6.30;99.90
10512;DHT22;5304;48.604;2.096;2023-04-24T04:13:01;6.30;99.90
10512;DHT22;5304;48.604;2.096;2023-04-24T04:15:46;6.20;99.90
10512;DHT22;5304;48.604;2.096;2023-04-24T04:18:30;6.20;99.90
10512;DHT22;5304;48.604;2.096;2023-04-24T04:21:15;6.20;99.90
10512;DHT22;5304;48.604;2.096;2023-04-24T04:23:59;6.20;99.90
10512;DHT22;5304;48.604;2.096;2023-04-24T04:26:44;6.20;99.90
10512;DHT22;5304;48.604;2.096;2023-04-24T04:29:31;6.20;99.90
10512;DHT22;5304;48.604;2.096;2023-04-24T04:32:16;6.20;99.90
10512;DHT22;5304;48.604;2.096;2023-04-24T04:35:01;6.20;99.90
10512;DHT22;5304;48.604;2.096;2023-04-24T04:37:49;6.20;99.90
10512;DHT22;5304;48.604;2.096;2023-04-24T04:40:33;6.20;99.90
10512;DHT22;5304;48.604;2.096;2023-04-24T04:43:18;6.20;99.90
10512;DHT22;5304;48.604;2.096;2023-04-24T04:46:02;6.20;99.90
10512;DHT22;5304;48.604;2.096;2023-04-24T04:48:47;6.20;99.90
10512;DHT22;5304;48.604;2.096;2023-04-24T04:51:32;6.30;99.90
10512;DHT22;5304;48.604;2.096;2023-04-24T04:54:16;6.20;99.90
10512;DHT22;5304;48.604;2.096;2023-04-24T04:57:01;6.20;99.90
10512;DHT22;5304;48.604;2.096;2023-04-24T04:59:45;6.20;99.90
10512;DHT22;5304;48.604;2.096;2023-04-24T05:02:30;6.30;99.90
10512;DHT22;5304;48.604;2.096;2023-04-24T05:05:14;6.40;99.90
10512;DHT22;5304;48.604;2.096;2023-04-24T05:08:01;6.50;99.90
10512;DHT22;5304;48.604;2.096;2023-04-24T05:10:45;6.50;99.90
10512;DHT22;5304;48.604;2.096;2023-04-24T05:13:30;6.40;99.90
10512;DHT22;5304;48.604;2.096;2023-04-24T05:16:17;6.40;99.90
10512;DHT22;5304;48.604;2.096;2023-04-24T05:19:01;6.50;99.90
10512;DHT22;5304;48.604;2.096;2023-04-24T05:21:46;6.50;99.90
10512;DHT22;5304;48.604;2.096;2023-04-24T05:24:31;6.60;99.90
10512;DHT22;5304;48.604;2.096;2023-04-24T05:27:15;6.70;99.90
10512;DHT22;5304;48.604;2.096;2023-04-24T05:30:00;6.80;99.90
10512;DHT22;5304;48.604;2.096;2023-04-24T05:32:44;7.00;99.90
10512;DHT22;5304;48.604;2.096;2023-04-24T05:35:29;7.30;99.90
10512;DHT22;5304;48.604;2.096;2023-04-24T05:38:14;7.60;99.90
10512;DHT22;5304;48.604;2.096;2023-04-24T05:41:01;7.90;99.90
10512;DHT22;5304;48.604;2.096;2023-04-24T05:43:46;7.90;99.90
10512;DHT22;5304;48.604;2.096;2023-04-24T05:46:30;8.00;99.90
10512;DHT22;5304;48.604;2.096;2023-04-24T05:49:15;8.10;99.90
10512;DHT22;5304;48.604;2.096;2023-04-24T05:51:59;8.00;99.90
10512;DHT22;5304;48.604;2.096;2023-04-24T05:54:43;8.10;99.90
10512;DHT22;5304;48.604;2.096;2023-04-24T05:57:30;8.00;99.90
10512;DHT22;5304;48.604;2.096;2023-04-24T06:00:15;8.10;99.90
10512;DHT22;5304;48.604;2.096;2023-04-24T06:03:00;8.10;99.90
10512;DHT22;5304;48.604;2.096;2023-04-24T06:05:45;8.10;99.90
10512;DHT22;5304;48.604;2.096;2023-04-24T06:08:29;8.20;99.90
10512;DHT22;5304;48.604;2.096;2023-04-24T06:11:14;8.40;99.90
10512;DHT22;5304;48.604;2.096;2023-04-24T06:13:58;8.40;99.90
10512;DHT22;5304;48.604;2.096;2023-04-24T06:16:42;8.40;99.90
10512;DHT22;5304;48.604;2.096;2023-04-24T06:19:27;8.40;99.90
10512;DHT22;5304;48.604;2.096;2023-04-24T06:22:12;8.40;99.90
10512;DHT22;5304;48.604;2.096;2023-04-24T06:24:56;8.40;99.90
10512;DHT22;5304;48.604;2.096;2023-04-24T06:27:40;8.40;99.90
10512;DHT22;5304;48.604;2.096;2023-04-24T06:30:25;8.40;99.90
10512;DHT22;5304;48.604;2.096;2023-04-24T06:33:10;8.40;99.90
10512;DHT22;5304;48.604;2.096;2023-04-24T06:35:55;8.50;99.90
10512;DHT22;5304;48.604;2.096;2023-04-24T06:38:40;8.50;99.90
10512;DHT22;5304;48.604;2.096;2023-04-24T06:41:24;8.60;99.90
10512;DHT22;5304;48.604;2.096;2023-04-24T06:44:09;8.80;99.90
10512;DHT22;5304;48.604;2.096;2023-04-24T06:46:53;9.00;99.90
10512;DHT22;5304;48.604;2.096;2023-04-24T06:49:38;9.10;99.90
10512;DHT22;5304;48.604;2.096;2023-04-24T06:52:22;9.10;99.90
10512;DHT22;5304;48.604;2.096;2023-04-24T06:55:08;9.10;99.90
10512;DHT22;5304;48.604;2.096;2023-04-24T06:57:52;9.10;99.90
10512;DHT22;5304;48.604;2.096;2023-04-24T07:00:37;9.10;99.90
10512;DHT22;5304;48.604;2.096;2023-04-24T07:03:21;9.10;99.90
10512;DHT22;5304;48.604;2.096;2023-04-24T07:06:06;9.10;99.90
10512;DHT22;5304;48.604;2.096;2023-04-24T07:08:50;9.00;99.90
10512;DHT22;5304;48.604;2.096;2023-04-24T07:11:35;9.10;99.90
10512;DHT22;5304;48.604;2.096;2023-04-24T07:14:20;9.20;99.90
10512;DHT22;5304;48.604;2.096;2023-04-24T07:17:05;9.30;99.90
10512;DHT22;5304;48.604;2.096;2023-04-24T07:19:51;9.20;99.90
10512;DHT22;5304;48.604;2.096;2023-04-24T07:22:37;9.30;99.90
10512;DHT22;5304;48.604;2.096;2023-04-24T07:25:21;9.50;99.90
10512;DHT22;5304;48.604;2.096;2023-04-24T07:28:05;9.70;99.90
10512;DHT22;5304;48.604;2.096;2023-04-24T07:30:50;10.40;99.90
10512;DHT22;5304;48.604;2.096;2023-04-24T07:33:34;11.70;99.90
10512;DHT22;5304;48.604;2.096;2023-04-24T07:36:19;12.40;99.90
10512;DHT22;5304;48.604;2.096;2023-04-24T07:39:07;12.60;99.90
10512;DHT22;5304;48.604;2.096;2023-04-24T07:41:52;12.10;99.90
10512;DHT22;5304;48.604;2.096;2023-04-24T07:44:36;11.80;99.90
10512;DHT22;5304;48.604;2.096;2023-04-24T07:47:21;11.50;99.90
10512;DHT22;5304;48.604;2.096;2023-04-24T07:50:06;11.40;99.90
10512;DHT22;5304;48.604;2.096;2023-04-24T07:52:50;11.30;99.90
10512;DHT22;5304;48.604;2.096;2023-04-24T07:55:35;11.20;99.90
10512;DHT22;5304;48.604;2.096;2023-04-24T07:58:19;11.20;99.90
10512;DHT22;5304;48.604;2.096;2023-04-24T08:01:04;11.60;99.90
10512;DHT22;5304;48.604;2.096;2023-04-24T08:03:49;12.20;99.90
10512;DHT22;5304;48.604;2.096;2023-04-24T08:06:34;13.80;99.90
10512;DHT22;5304;48.604;2.096;2023-04-24T08:09:18;15.40;99.90
10512;DHT22;5304;48.604;2.096;2023-04-24T08:12:03;17.10;99.90
10512;DHT22;5304;48.604;2.096;2023-04-24T08:14:47;17.70;99.90
10512;DHT22;5304;48.604;2.096;2023-04-24T08:17:32;16.90;99.90
10512;DHT22;5304;48.604;2.096;2023-04-24T08:20:16;15.50;99.90
10512;DHT22;5304;48.604;2.096;2023-04-24T08:23:01;14.40;99.90
10512;DHT22;5304;48.604;2.096;2023-04-24T08:25:45;13.60;99.90
10512;DHT22;5304;48.604;2.096;2023-04-24T08:28:30;13.50;99.90
10512;DHT22;5304;48.604;2.096;2023-04-24T08:31:14;14.20;99.90
10512;DHT22;5304;48.604;2.096;2023-04-24T08:33:59;14.60;99.90
10512;DHT22;5304;48.604;2.096;2023-04-24T08:36:43;14.70;99.90
10512;DHT22;5304;48.604;2.096;2023-04-24T08:39:29;15.10;99.90
10512;DHT22;5304;48.604;2.096;2023-04-24T08:42:16;15.90;99.90
10512;DHT22;5304;48.604;2.096;2023-04-24T08:45:01;15.50;99.90
10512;DHT22;5304;48.604;2.096;2023-04-24T08:47:46;15.20;99.90
10512;DHT22;5304;48.604;2.096;2023-04-24T08:50:32;14.70;99.90
10512;DHT22;5304;48.604;2.096;2023-04-24T08:53:18;14.10;99.90
10512;DHT22;5304;48.604;2.096;2023-04-24T08:56:03;13.60;99.90
10512;DHT22;5304;48.604;2.096;2023-04-24T08:58:48;13.20;99.90
10512;DHT22;5304;48.604;2.096;2023-04-24T09:01:33;12.80;99.90
10512;DHT22;5304;48.604;2.096;2023-04-24T09:04:20;12.40;99.90
10512;DHT22;5304;48.604;2.096;2023-04-24T09:07:06;12.40;99.90
10512;DHT22;5304;48.604;2.096;2023-04-24T09:09:52;12.40;99.90
10512;DHT22;5304;48.604;2.096;2023-04-24T09:12:37;12.20;99.90
10512;DHT22;5304;48.604;2.096;2023-04-24T09:15:21;12.40;99.90
10512;DHT22;5304;48.604;2.096;2023-04-24T09:18:06;12.40;99.90
10512;DHT22;5304;48.604;2.096;2023-04-24T09:20:58;12.30;99.90
10512;DHT22;5304;48.604;2.096;2023-04-24T09:23:44;12.20;99.90
10512;DHT22;5304;48.604;2.096;2023-04-24T09:26:34;12.10;99.90
10512;DHT22;5304;48.604;2.096;2023-04-24T09:29:19;12.30;99.90
10512;DHT22;5304;48.604;2.096;2023-04-24T09:32:24;12.40;99.90
10512;DHT22;5304;48.604;2.096;2023-04-24T09:35:14;12.60;99.90
10512;DHT22;5304;48.604;2.096;2023-04-24T09:37:59;12.60;99.90
10512;DHT22;5304;48.604;2.096;2023-04-24T09:40:43;12.70;99.90
10512;DHT22;5304;48.604;2.096;2023-04-24T09:43:28;12.60;99.90
10512;DHT22;5304;48.604;2.096;2023-04-24T09:46:12;12.40;99.90
10512;DHT22;5304;48.604;2.096;2023-04-24T09:48:57;12.40;99.90
10512;DHT22;5304;48.604;2.096;2023-04-24T09:51:42;12.40;99.90
10512;DHT22;5304;48.604;2.096;2023-04-24T09:54:27;12.50;99.90
10512;DHT22;5304;48.604;2.096;2023-04-24T09:57:11;12.40;99.90
10512;DHT22;5304;48.604;2.096;2023-04-24T09:59:57;12.50;99.90
10512;DHT22;5304;48.604;2.096;2023-04-24T10:02:41;12.40;99.90
10512;DHT22;5304;48.604;2.096;2023-04-24T10:05:36;12.30;99.90
10512;DHT22;5304;48.604;2.096;2023-04-24T10:08:21;12.20;99.90
10512;DHT22;5304;48.604;2.096;2023-04-24T10:11:06;12.00;99.90
10512;DHT22;5304;48.604;2.096;2023-04-24T10:13:52;12.10;99.90
10512;DHT22;5304;48.604;2.096;2023-04-24T10:16:37;12.00;99.90
10512;DHT22;5304;48.604;2.096;2023-04-24T10:19:25;12.00;99.90
10512;DHT22;5304;48.604;2.096;2023-04-24T10:22:10;11.90;99.90
10512;DHT22;5304;48.604;2.096;2023-04-24T10:24:56;11.80;99.90
10512;DHT22;5304;48.604;2.096;2023-04-24T10:27:40;11.90;99.90
10512;DHT22;5304;48.604;2.096;2023-04-24T10:30:29;12.00;99.90
10512;DHT22;5304;48.604;2.096;2023-04-24T10:33:14;12.10;99.90
10512;DHT22;5304;48.604;2.096;2023-04-24T10:36:00;12.20;99.90
10512;DHT22;5304;48.604;2.096;2023-04-24T10:38:46;12.40;99.90
10512;DHT22;5304;48.604;2.096;2023-04-24T10:41:31;12.40;99.90
10512;DHT22;5304;48.604;2.096;2023-04-24T10:44:16;12.60;99.90
10512;DHT22;5304;48.604;2.096;2023-04-24T10:47:01;12.80;99.90
10512;DHT22;5304;48.604;2.096;2023-04-24T10:49:46;13.10;99.90
10512;DHT22;5304;48.604;2.096;2023-04-24T10:52:47;13.30;99.90
10512;DHT22;5304;48.604;2.096;2023-04-24T10:58:41;13.60;99.90
10512;DHT22;5304;48.604;2.096;2023-04-24T11:01:32;13.50;99.90
10512;DHT22;5304;48.604;2.096;2023-04-24T11:04:29;13.70;99.90
10512;DHT22;5304;48.604;2.096;2023-04-24T11:07:14;13.80;99.90
10512;DHT22;5304;48.604;2.096;2023-04-24T11:09:59;13.70;99.90
10512;DHT22;5304;48.604;2.096;2023-04-24T11:12:45;13.60;99.90
10512;DHT22;5304;48.604;2.096;2023-04-24T11:15:29;13.50;99.90
10512;DHT22;5304;48.604;2.096;2023-04-24T11:18:14;13.60;99.90
10512;DHT22;5304;48.604;2.096;2023-04-24T11:21:10;13.70;99.90
10512;DHT22;5304;48.604;2.096;2023-04-24T11:23:55;14.00;99.90
10512;DHT22;5304;48.604;2.096;2023-04-24T11:26:40;14.10;99.90
10512;DHT22;5304;48.604;2.096;2023-04-24T11:29:59;14.00;99.90
10512;DHT22;5304;48.604;2.096;2023-04-24T11:32:47;13.80;99.90
10512;DHT22;5304;48.604;2.096;2023-04-24T11:35:39;13.90;99.90
10512;DHT22;5304;48.604;2.096;2023-04-24T11:38:24;13.80;99.90
10512;DHT22;5304;48.604;2.096;2023-04-24T11:41:10;13.60;99.90
10512;DHT22;5304;48.604;2.096;2023-04-24T11:43:56;13.50;99.90
10512;DHT22;5304;48.604;2.096;2023-04-24T11:46:41;13.40;99.90
10512;DHT22;5304;48.604;2.096;2023-04-24T11:49:26;13.50;99.90
10512;DHT22;5304;48.604;2.096;2023-04-24T11:52:11;13.50;99.90
10512;DHT22;5304;48.604;2.096;2023-04-24T11:54:59;13.50;99.90
10512;DHT22;5304;48.604;2.096;2023-04-24T11:57:45;13.60;99.90
10512;DHT22;5304;48.604;2.096;2023-04-24T12:00:31;13.70;99.90
10512;DHT22;5304;48.604;2.096;2023-04-24T12:03:17;13.40;99.90
10512;DHT22;5304;48.604;2.096;2023-04-24T12:06:09;13.40;99.90
10512;DHT22;5304;48.604;2.096;2023-04-24T12:08:54;13.20;99.90
10512;DHT22;5304;48.604;2.096;2023-04-24T12:11:56;13.20;99.90
10512;DHT22;5304;48.604;2.096;2023-04-24T12:14:55;13.20;99.90
10512;DHT22;5304;48.604;2.096;2023-04-24T12:17:41;13.20;99.90
10512;DHT22;5304;48.604;2.096;2023-04-24T12:20:31;13.30;99.90
10512;DHT22;5304;48.604;2.096;2023-04-24T12:23:16;13.60;99.90
10512;DHT22;5304;48.604;2.096;2023-04-24T12:26:04;13.70;99.90
10512;DHT22;5304;48.604;2.096;2023-04-24T12:28:49;13.70;99.90
10512;DHT22;5304;48.604;2.096;2023-04-24T12:31:34;13.70;99.90
10512;DHT22;5304;48.604;2.096;2023-04-24T12:34:23;13.60;99.90
10512;DHT22;5304;48.604;2.096;2023-04-24T12:37:11;13.60;99.90
10512;DHT22;5304;48.604;2.096;2023-04-24T12:40:07;13.50;99.90
10512;DHT22;5304;48.604;2.096;2023-04-24T12:42:52;13.40;99.90
10512;DHT22;5304;48.604;2.096;2023-04-24T12:45:36;13.30;99.90
10512;DHT22;5304;48.604;2.096;2023-04-24T12:48:20;13.40;99.90
10512;DHT22;5304;48.604;2.096;2023-04-24T12:51:06;13.50;99.90
10512;DHT22;5304;48.604;2.096;2023-04-24T12:53:51;13.50;99.90
10512;DHT22;5304;48.604;2.096;2023-04-24T12:56:35;13.70;99.90
10512;DHT22;5304;48.604;2.096;2023-04-24T12:59:23;13.80;99.90
10512;DHT22;5304;48.604;2.096;2023-04-24T13:02:07;13.70;99.90
10512;DHT22;5304;48.604;2.096;2023-04-24T13:04:53;13.60;99.90
10512;DHT22;5304;48.604;2.096;2023-04-24T13:07:38;13.50;99.90
10512;DHT22;5304;48.604;2.096;2023-04-24T13:10:23;13.30;99.90
10512;DHT22;5304;48.604;2.096;2023-04-24T13:13:08;13.20;99.90
10512;DHT22;5304;48.604;2.096;2023-04-24T13:15:52;13.10;99.90
10512;DHT22;5304;48.604;2.096;2023-04-24T13:18:37;13.20;99.90
10512;DHT22;5304;48.604;2.096;2023-04-24T13:21:21;13.20;99.90
10512;DHT22;5304;48.604;2.096;2023-04-24T13:24:05;13.00;99.90
10512;DHT22;5304;48.604;2.096;2023-04-24T13:26:54;12.70;99.90
10512;DHT22;5304;48.604;2.096;2023-04-24T13:29:40;12.50;99.90
10512;DHT22;5304;48.604;2.096;2023-04-24T13:32:25;12.60;99.90
10512;DHT22;5304;48.604;2.096;2023-04-24T13:35:10;12.60;99.90
10512;DHT22;5304;48.604;2.096;2023-04-24T13:37:54;12.80;99.90
10512;DHT22;5304;48.604;2.096;2023-04-24T13:40:38;13.10;99.90
10512;DHT22;5304;48.604;2.096;2023-04-24T13:43:23;13.60;99.90
10512;DHT22;5304;48.604;2.096;2023-04-24T13:46:08;13.90;99.90
10512;DHT22;5304;48.604;2.096;2023-04-24T13:48:53;14.00;99.90
10512;DHT22;5304;48.604;2.096;2023-04-24T13:51:38;13.80;99.90
10512;DHT22;5304;48.604;2.096;2023-04-24T13:54:23;13.40;99.90
10512;DHT22;5304;48.604;2.096;2023-04-24T13:57:09;12.80;99.90
10512;DHT22;5304;48.604;2.096;2023-04-24T13:59:54;12.60;99.90
10512;DHT22;5304;48.604;2.096;2023-04-24T14:02:40;12.50;99.90
10512;DHT22;5304;48.604;2.096;2023-04-24T14:05:24;12.50;99.90
10512;DHT22;5304;48.604;2.096;2023-04-24T14:08:09;12.60;99.90
10512;DHT22;5304;48.604;2.096;2023-04-24T14:10:54;12.70;99.90
10512;DHT22;5304;48.604;2.096;2023-04-24T14:13:40;12.90;99.90
10512;DHT22;5304;48.604;2.096;2023-04-24T14:16:25;13.60;99.90
10512;DHT22;5304;48.604;2.096;2023-04-24T14:19:09;14.10;99.90
10512;DHT22;5304;48.604;2.096;2023-04-24T14:21:54;14.40;99.90
10512;DHT22;5304;48.604;2.096;2023-04-24T14:24:39;14.50;99.90
10512;DHT22;5304;48.604;2.096;2023-04-24T14:27:24;14.70;99.90
10512;DHT22;5304;48.604;2.096;2023-04-24T14:30:10;14.60;99.90
10512;DHT22;5304;48.604;2.096;2023-04-24T14:32:55;14.40;99.90
10512;DHT22;5304;48.604;2.096;2023-04-24T14:35:40;14.40;99.90
10512;DHT22;5304;48.604;2.096;2023-04-24T14:38:25;14.40;99.90
10512;DHT22;5304;48.604;2.096;2023-04-24T14:41:10;14.40;99.90
10512;DHT22;5304;48.604;2.096;2023-04-24T14:43:56;14.40;99.90
10512;DHT22;5304;48.604;2.096;2023-04-24T14:46:41;14.70;99.90
10512;DHT22;5304;48.604;2.096;2023-04-24T14:49:25;14.80;99.90
10512;DHT22;5304;48.604;2.096;2023-04-24T14:52:10;14.50;99.90
10512;DHT22;5304;48.604;2.096;2023-04-24T14:54:55;14.40;99.90
10512;DHT22;5304;48.604;2.096;2023-04-24T14:57:40;14.10;99.90
10512;DHT22;5304;48.604;2.096;2023-04-24T15:00:25;14.00;99.90
10512;DHT22;5304;48.604;2.096;2023-04-24T15:03:09;13.90;99.90
10512;DHT22;5304;48.604;2.096;2023-04-24T15:05:54;13.80;99.90
10512;DHT22;5304;48.604;2.096;2023-04-24T15:08:38;13.80;99.90
10512;DHT22;5304;48.604;2.096;2023-04-24T15:11:23;13.90;99.90
10512;DHT22;5304;48.604;2.096;2023-04-24T15:14:08;14.00;99.90
10512;DHT22;5304;48.604;2.096;2023-04-24T15:16:52;14.10;99.90
10512;DHT22;5304;48.604;2.096;2023-04-24T15:19:37;14.10;99.90
10512;DHT22;5304;48.604;2.096;2023-04-24T15:22:21;14.00;99.90
10512;DHT22;5304;48.604;2.096;2023-04-24T15:25:06;13.90;99.90
10512;DHT22;5304;48.604;2.096;2023-04-24T15:27:50;13.80;99.90
10512;DHT22;5304;48.604;2.096;2023-04-24T15:30:35;13.50;99.90
10512;DHT22;5304;48.604;2.096;2023-04-24T15:33:19;13.30;99.90
10512;DHT22;5304;48.604;2.096;2023-04-24T15:36:04;13.20;99.90
10512;DHT22;5304;48.604;2.096;2023-04-24T15:38:49;13.20;99.90
10512;DHT22;5304;48.604;2.096;2023-04-24T15:41:34;13.20;99.90
10512;DHT22;5304;48.604;2.096;2023-04-24T15:44:19;13.30;99.90
10512;DHT22;5304;48.604;2.096;2023-04-24T15:47:04;13.30;99.90
10512;DHT22;5304;48.604;2.096;2023-04-24T15:49:48;13.60;99.90
10512;DHT22;5304;48.604;2.096;2023-04-24T15:52:33;13.80;99.90
10512;DHT22;5304;48.604;2.096;2023-04-24T15:55:17;13.80;99.90
10512;DHT22;5304;48.604;2.096;2023-04-24T15:58:02;13.80;99.90
10512;DHT22;5304;48.604;2.096;2023-04-24T16:00:46;13.80;99.90
10512;DHT22;5304;48.604;2.096;2023-04-24T16:03:31;13.80;99.90
10512;DHT22;5304;48.604;2.096;2023-04-24T16:06:15;13.80;99.90
10512;DHT22;5304;48.604;2.096;2023-04-24T16:08:59;13.80;99.90
10512;DHT22;5304;48.604;2.096;2023-04-24T16:11:44;13.80;99.90
10512;DHT22;5304;48.604;2.096;2023-04-24T16:14:29;13.90;99.90
10512;DHT22;5304;48.604;2.096;2023-04-24T16:17:13;13.90;99.90
10512;DHT22;5304;48.604;2.096;2023-04-24T16:19:58;13.70;99.90
10512;DHT22;5304;48.604;2.096;2023-04-24T16:22:42;13.50;99.90
10512;DHT22;5304;48.604;2.096;2023-04-24T16:25:27;13.40;99.90
10512;DHT22;5304;48.604;2.096;2023-04-24T16:28:12;13.30;99.90
10512;DHT22;5304;48.604;2.096;2023-04-24T16:30:58;13.20;99.90
10512;DHT22;5304;48.604;2.096;2023-04-24T16:33:42;13.10;99.90
10512;DHT22;5304;48.604;2.096;2023-04-24T16:36:26;13.10;99.90
10512;DHT22;5304;48.604;2.096;2023-04-24T16:39:12;13.20;99.90
10512;DHT22;5304;48.604;2.096;2023-04-24T16:41:56;13.40;99.90
10512;DHT22;5304;48.604;2.096;2023-04-24T16:44:42;13.50;99.90
10512;DHT22;5304;48.604;2.096;2023-04-24T16:47:26;13.60;99.90
10512;DHT22;5304;48.604;2.096;2023-04-24T16:50:11;13.60;99.90
10512;DHT22;5304;48.604;2.096;2023-04-24T16:52:55;13.70;99.90
10512;DHT22;5304;48.604;2.096;2023-04-24T16:55:40;13.80;99.90
10512;DHT22;5304;48.604;2.096;2023-04-24T16:58:25;13.60;99.90
10512;DHT22;5304;48.604;2.096;2023-04-24T17:01:09;13.60;99.90
10512;DHT22;5304;48.604;2.096;2023-04-24T17:03:53;13.50;99.90
10512;DHT22;5304;48.604;2.096;2023-04-24T17:06:38;13.30;99.90
10512;DHT22;5304;48.604;2.096;2023-04-24T17:09:22;13.20;99.90
10512;DHT22;5304;48.604;2.096;2023-04-24T17:12:07;13.30;99.90
10512;DHT22;5304;48.604;2.096;2023-04-24T17:14:51;13.20;99.90
10512;DHT22;5304;48.604;2.096;2023-04-24T17:17:37;13.20;99.90
10512;DHT22;5304;48.604;2.096;2023-04-24T17:20:21;13.20;99.90
10512;DHT22;5304;48.604;2.096;2023-04-24T17:23:06;13.20;99.90
10512;DHT22;5304;48.604;2.096;2023-04-24T17:25:54;13.20;99.90
10512;DHT22;5304;48.604;2.096;2023-04-24T17:28:39;13.10;99.90
10512;DHT22;5304;48.604;2.096;2023-04-24T17:31:24;13.10;99.90
10512;DHT22;5304;48.604;2.096;2023-04-24T17:34:08;13.10;99.90
10512;DHT22;5304;48.604;2.096;2023-04-24T17:36:53;13.10;99.90
10512;DHT22;5304;48.604;2.096;2023-04-24T17:39:37;13.10;99.90
10512;DHT22;5304;48.604;2.096;2023-04-24T17:42:22;13.10;99.90
10512;DHT22;5304;48.604;2.096;2023-04-24T17:45:06;13.00;99.90
10512;DHT22;5304;48.604;2.096;2023-04-24T17:47:51;13.00;99.90
10512;DHT22;5304;48.604;2.096;2023-04-24T17:50:35;12.90;99.90